New Champion — V7GG2 — position and weather

sailwx.info

Track history (hours):
 
Tides and Currents Weather Stations Pressure Air Temp Water Temp Dewpoint Dewpoint Depression Visibility Wind Speed Wind Dir Waves Ship Positions

New Champion

Last reported at 2015-Feb-18 01:07 UTC. Time now 2015-Mar-06 03:59 UTC.
Position N 37°20' E 025°54'.
Warning: this ship's position is 16 days out of date.

Length 228 m; draft 11.4 m.

Type: Ship (hazmat cat A). MMSI: 537985031.

Date/timePositionNaut miles runAvg speedWind from/ knotsBaromVisibWave heightAir tempDewpointWater temp
2015-Feb-18 01:07N 37°20' E 025°54'712.2
2015-Feb-18 00:33N 37°26' E 025°49'1211.5
2015-Feb-17 23:31N 37°36' E 025°43'1111.8
2015-Feb-17 22:33N 37°47' E 025°39'  
2015-Feb-14 04:26N 41°20' E 029°08'8 0.4
2015-Feb-13 10:10N 41°28' E 029°10'1 1.6
2015-Feb-13 09:32N 41°29' E 029°09'1 1.4
2015-Feb-13 08:32N 41°30' E 029°08'8 5.5
2015-Feb-13 07:06N 41°23' E 029°13'1 1.8
2015-Feb-13 06:29N 41°22' E 029°13'1 1.4
2015-Feb-13 05:32N 41°23' E 029°12'2 1.5
2015-Feb-13 04:24N 41°24' E 029°13'44712.0
2015-Feb-11 15:04N 43°56' E 038°46'612.7
2015-Feb-11 14:33N 43°58' E 038°54'9 8.8
2015-Feb-11 13:34N 44°04' E 039°03'2 1.6
2015-Feb-11 12:33N 44°05' E 039°04'0 0.0
2015-Feb-11 11:33N 44°05' E 039°04'0 0.0
2015-Feb-11 10:33N 44°05' E 039°04'0 0.0
2015-Feb-11 09:33N 44°05' E 039°04'0 0.0
2015-Feb-11 08:33N 44°05' E 039°04'0 0.0
2015-Feb-11 07:33N 44°05' E 039°04'0 0.0
2015-Feb-11 06:33N 44°05' E 039°04'0 0.0
2015-Feb-11 05:30N 44°05' E 039°04'0 0.0
2015-Feb-11 04:33N 44°05' E 039°04'0 0.0
2015-Feb-11 03:33N 44°05' E 039°04'0 0.0
2015-Feb-11 02:33N 44°05' E 039°04'0 0.0
2015-Feb-11 01:33N 44°05' E 039°04'0 0.0
2015-Feb-11 00:33N 44°05' E 039°04'0 0.0
2015-Feb-10 23:33N 44°05' E 039°04'0 0.0
2015-Feb-10 22:33N 44°05' E 039°04'0 0.0
2015-Feb-10 21:33N 44°05' E 039°04'0 0.0
2015-Feb-10 20:33N 44°05' E 039°04'0 0.0
2015-Feb-10 19:33N 44°05' E 039°04'0 0.0
2015-Feb-10 18:33N 44°05' E 039°04'0 0.0
2015-Feb-10 17:33N 44°05' E 039°04'0 0.0
2015-Feb-10 16:33N 44°05' E 039°04'0 0.0
2015-Feb-10 15:33N 44°05' E 039°04'0 0.0
2015-Feb-10 14:33N 44°05' E 039°04'0 0.0
2015-Feb-10 13:33N 44°05' E 039°04'0 0.0
2015-Feb-10 12:33N 44°05' E 039°04'0 0.0
2015-Feb-10 11:33N 44°05' E 039°04'0 0.0
2015-Feb-10 10:33N 44°05' E 039°04'0 0.0
2015-Feb-10 09:33N 44°05' E 039°04'0 0.0
2015-Feb-10 08:33N 44°05' E 039°04'0 0.0
2015-Feb-10 07:33N 44°05' E 039°04'0 0.0
2015-Feb-10 06:33N 44°05' E 039°04'0 0.0
2015-Feb-10 05:33N 44°05' E 039°04'0 0.0
2015-Feb-10 04:30N 44°05' E 039°04'0 0.0
2015-Feb-10 03:33N 44°05' E 039°04'0 0.0
2015-Feb-10 02:33N 44°05' E 039°04'0 0.0
2015-Feb-10 01:33N 44°05' E 039°04'0 0.0
2015-Feb-10 00:33N 44°05' E 039°04'0 0.0
2015-Feb-09 23:33N 44°05' E 039°04'0 0.0
2015-Feb-09 22:33N 44°05' E 039°04'0 0.0
2015-Feb-09 21:33N 44°05' E 039°04'0 0.0
2015-Feb-09 20:33N 44°05' E 039°04'0 0.0
2015-Feb-09 19:33N 44°05' E 039°04'0 0.0
2015-Feb-09 18:33N 44°05' E 039°04'0 0.0
2015-Feb-09 17:33N 44°05' E 039°04'0 0.0
2015-Feb-09 16:33N 44°05' E 039°04'0 0.0
2015-Feb-09 15:33N 44°05' E 039°04'0 0.0
2015-Feb-09 14:33N 44°05' E 039°04'0 0.0
2015-Feb-09 13:33N 44°05' E 039°04'0 0.0
2015-Feb-09 12:33N 44°05' E 039°04'0 0.0
2015-Feb-09 11:33N 44°05' E 039°04'0 0.2
2015-Feb-09 10:33N 44°05' E 039°04'4 3.8
2015-Feb-09 09:33N 44°01' E 039°06'0 0.1
2015-Feb-09 08:31N 44°02' E 039°06'0 0.0
2015-Feb-09 07:31N 44°02' E 039°06'0 0.0
2015-Feb-09 06:31N 44°02' E 039°06'0 0.1
2015-Feb-09 05:31N 44°02' E 039°06'0 0.1
2015-Feb-09 04:31N 44°02' E 039°06'0 0.1
2015-Feb-09 03:31N 44°02' E 039°06'0 0.0
2015-Feb-09 02:31N 44°02' E 039°06'1 0.6
2015-Feb-09 01:33N 44°02' E 039°05'6 5.8
2015-Feb-09 00:33N 43°59' E 038°58'1111.3
2015-Feb-08 23:33N 43°56' E 038°43'1312.0
2015-Feb-08 22:29N 43°54' E 038°26'  
Track history (hours):
 
Tides and Currents Weather Stations Pressure Air Temp Water Temp Dewpoint Dewpoint Depression Visibility Wind Speed Wind Dir Waves Ship Positions

New Champion

Last reported at 2015-Feb-18 01:07 UTC. Time now 2015-Mar-06 03:59 UTC.
Position N 37°20' E 025°54'.
Warning: this ship's position is 16 days out of date.

Length 228 m; draft 11.4 m.

Type: Ship (hazmat cat A). MMSI: 537985031.

Date/timePositionNaut miles runAvg speedWind from/ knotsBaromVisibWave heightAir tempDewpointWater temp
2015-Feb-18 01:07N 37°20' E 025°54'712.2
2015-Feb-18 00:33N 37°26' E 025°49'1211.5
2015-Feb-17 23:31N 37°36' E 025°43'1111.8
2015-Feb-17 22:33N 37°47' E 025°39'  
2015-Feb-14 04:26N 41°20' E 029°08'8 0.4
2015-Feb-13 10:10N 41°28' E 029°10'1 1.6
2015-Feb-13 09:32N 41°29' E 029°09'1 1.4
2015-Feb-13 08:32N 41°30' E 029°08'8 5.5
2015-Feb-13 07:06N 41°23' E 029°13'1 1.8
2015-Feb-13 06:29N 41°22' E 029°13'1 1.4
2015-Feb-13 05:32N 41°23' E 029°12'2 1.5
2015-Feb-13 04:24N 41°24' E 029°13'44712.0
2015-Feb-11 15:04N 43°56' E 038°46'612.7
2015-Feb-11 14:33N 43°58' E 038°54'9 8.8
2015-Feb-11 13:34N 44°04' E 039°03'2 1.6
2015-Feb-11 12:33N 44°05' E 039°04'0 0.0
2015-Feb-11 11:33N 44°05' E 039°04'0 0.0
2015-Feb-11 10:33N 44°05' E 039°04'0 0.0
2015-Feb-11 09:33N 44°05' E 039°04'0 0.0
2015-Feb-11 08:33N 44°05' E 039°04'0 0.0
2015-Feb-11 07:33N 44°05' E 039°04'0 0.0
2015-Feb-11 06:33N 44°05' E 039°04'0 0.0
2015-Feb-11 05:30N 44°05' E 039°04'0 0.0
2015-Feb-11 04:33N 44°05' E 039°04'0 0.0
2015-Feb-11 03:33N 44°05' E 039°04'0 0.0
2015-Feb-11 02:33N 44°05' E 039°04'0 0.0
2015-Feb-11 01:33N 44°05' E 039°04'0 0.0
2015-Feb-11 00:33N 44°05' E 039°04'0 0.0
2015-Feb-10 23:33N 44°05' E 039°04'0 0.0
2015-Feb-10 22:33N 44°05' E 039°04'0 0.0
2015-Feb-10 21:33N 44°05' E 039°04'0 0.0
2015-Feb-10 20:33N 44°05' E 039°04'0 0.0
2015-Feb-10 19:33N 44°05' E 039°04'0 0.0
2015-Feb-10 18:33N 44°05' E 039°04'0 0.0
2015-Feb-10 17:33N 44°05' E 039°04'0 0.0
2015-Feb-10 16:33N 44°05' E 039°04'0 0.0
2015-Feb-10 15:33N 44°05' E 039°04'0 0.0
2015-Feb-10 14:33N 44°05' E 039°04'0 0.0
2015-Feb-10 13:33N 44°05' E 039°04'0 0.0
2015-Feb-10 12:33N 44°05' E 039°04'0 0.0
2015-Feb-10 11:33N 44°05' E 039°04'0 0.0
2015-Feb-10 10:33N 44°05' E 039°04'0 0.0
2015-Feb-10 09:33N 44°05' E 039°04'0 0.0
2015-Feb-10 08:33N 44°05' E 039°04'0 0.0
2015-Feb-10 07:33N 44°05' E 039°04'0 0.0
2015-Feb-10 06:33N 44°05' E 039°04'0 0.0
2015-Feb-10 05:33N 44°05' E 039°04'0 0.0
2015-Feb-10 04:30N 44°05' E 039°04'0 0.0
2015-Feb-10 03:33N 44°05' E 039°04'0 0.0
2015-Feb-10 02:33N 44°05' E 039°04'0 0.0
2015-Feb-10 01:33N 44°05' E 039°04'0 0.0
2015-Feb-10 00:33N 44°05' E 039°04'0 0.0
2015-Feb-09 23:33N 44°05' E 039°04'0 0.0
2015-Feb-09 22:33N 44°05' E 039°04'0 0.0
2015-Feb-09 21:33N 44°05' E 039°04'0 0.0
2015-Feb-09 20:33N 44°05' E 039°04'0 0.0
2015-Feb-09 19:33N 44°05' E 039°04'0 0.0
2015-Feb-09 18:33N 44°05' E 039°04'0 0.0
2015-Feb-09 17:33N 44°05' E 039°04'0 0.0
2015-Feb-09 16:33N 44°05' E 039°04'0 0.0
2015-Feb-09 15:33N 44°05' E 039°04'0 0.0
2015-Feb-09 14:33N 44°05' E 039°04'0 0.0
2015-Feb-09 13:33N 44°05' E 039°04'0 0.0
2015-Feb-09 12:33N 44°05' E 039°04'0 0.0
2015-Feb-09 11:33N 44°05' E 039°04'0 0.2
2015-Feb-09 10:33N 44°05' E 039°04'4 3.8
2015-Feb-09 09:33N 44°01' E 039°06'0 0.1
2015-Feb-09 08:31N 44°02' E 039°06'0 0.0
2015-Feb-09 07:31N 44°02' E 039°06'0 0.0
2015-Feb-09 06:31N 44°02' E 039°06'0 0.1
2015-Feb-09 05:31N 44°02' E 039°06'0 0.1
2015-Feb-09 04:31N 44°02' E 039°06'0 0.1
2015-Feb-09 03:31N 44°02' E 039°06'0 0.0
2015-Feb-09 02:31N 44°02' E 039°06'1 0.6
2015-Feb-09 01:33N 44°02' E 039°05'6 5.8
2015-Feb-09 00:33N 43°59' E 038°58'1111.3
2015-Feb-08 23:33N 43°56' E 038°43'1312.0
2015-Feb-08 22:29N 43°54' E 038°26'  

Dump ship's entire track history